sensor_id;sensor_type;location;lat;lon;timestamp;P1;durP1;ratioP1;P2;durP2;ratioP2
53519;SDS011;39397;53.204;5.778;2023-09-30T00:01:17;15.07;;;2.65;;
53519;SDS011;39397;53.204;5.778;2023-09-30T00:03:44;12.95;;;2.58;;
53519;SDS011;39397;53.204;5.778;2023-09-30T00:06:10;17.58;;;2.53;;
53519;SDS011;39397;53.204;5.778;2023-09-30T00:08:36;12.75;;;2.60;;
53519;SDS011;39397;53.204;5.778;2023-09-30T00:11:04;14.32;;;2.60;;
53519;SDS011;39397;53.204;5.778;2023-09-30T00:13:31;13.70;;;2.53;;
53519;SDS011;39397;53.204;5.778;2023-09-30T00:15:57;12.13;;;2.50;;
53519;SDS011;39397;53.204;5.778;2023-09-30T00:18:23;10.55;;;2.40;;
53519;SDS011;39397;53.204;5.778;2023-09-30T00:20:49;10.20;;;2.63;;
53519;SDS011;39397;53.204;5.778;2023-09-30T00:23:14;11.82;;;3.08;;
53519;SDS011;39397;53.204;5.778;2023-09-30T00:25:40;16.83;;;2.63;;
53519;SDS011;39397;53.204;5.778;2023-09-30T00:28:07;11.38;;;2.55;;
53519;SDS011;39397;53.204;5.778;2023-09-30T00:30:32;9.13;;;2.78;;
53519;SDS011;39397;53.204;5.778;2023-09-30T00:32:59;11.95;;;2.50;;
53519;SDS011;39397;53.204;5.778;2023-09-30T00:35:25;8.65;;;2.40;;
53519;SDS011;39397;53.204;5.778;2023-09-30T00:37:51;11.77;;;2.65;;
53519;SDS011;39397;53.204;5.778;2023-09-30T00:40:16;11.20;;;2.50;;
53519;SDS011;39397;53.204;5.778;2023-09-30T00:42:48;12.07;;;3.03;;
53519;SDS011;39397;53.204;5.778;2023-09-30T00:45:14;13.23;;;3.25;;
53519;SDS011;39397;53.204;5.778;2023-09-30T00:47:40;12.05;;;2.72;;
53519;SDS011;39397;53.204;5.778;2023-09-30T00:50:07;13.45;;;2.60;;
53519;SDS011;39397;53.204;5.778;2023-09-30T00:52:36;11.20;;;2.65;;
53519;SDS011;39397;53.204;5.778;2023-09-30T00:55:03;9.38;;;2.83;;
53519;SDS011;39397;53.204;5.778;2023-09-30T00:57:36;14.43;;;2.50;;
53519;SDS011;39397;53.204;5.778;2023-09-30T01:00:04;12.55;;;2.40;;
53519;SDS011;39397;53.204;5.778;2023-09-30T01:02:31;8.85;;;2.50;;
53519;SDS011;39397;53.204;5.778;2023-09-30T01:04:57;8.35;;;2.10;;
53519;SDS011;39397;53.204;5.778;2023-09-30T01:07:23;8.40;;;2.35;;
53519;SDS011;39397;53.204;5.778;2023-09-30T01:09:49;12.85;;;3.08;;
53519;SDS011;39397;53.204;5.778;2023-09-30T01:12:17;8.07;;;2.58;;
53519;SDS011;39397;53.204;5.778;2023-09-30T01:14:42;10.52;;;2.58;;
53519;SDS011;39397;53.204;5.778;2023-09-30T01:17:09;10.98;;;2.75;;
53519;SDS011;39397;53.204;5.778;2023-09-30T01:19:38;7.28;;;2.28;;
53519;SDS011;39397;53.204;5.778;2023-09-30T01:22:06;10.25;;;2.63;;
53519;SDS011;39397;53.204;5.778;2023-09-30T01:24:41;7.97;;;2.22;;
53519;SDS011;39397;53.204;5.778;2023-09-30T01:27:10;10.15;;;2.40;;
53519;SDS011;39397;53.204;5.778;2023-09-30T01:29:38;12.25;;;3.13;;
53519;SDS011;39397;53.204;5.778;2023-09-30T01:32:04;11.23;;;5.85;;
53519;SDS011;39397;53.204;5.778;2023-09-30T01:34:34;11.18;;;3.70;;
53519;SDS011;39397;53.204;5.778;2023-09-30T01:37:01;11.98;;;2.83;;
53519;SDS011;39397;53.204;5.778;2023-09-30T01:39:26;11.48;;;3.40;;
53519;SDS011;39397;53.204;5.778;2023-09-30T01:41:55;8.95;;;2.72;;
53519;SDS011;39397;53.204;5.778;2023-09-30T01:44:21;13.27;;;3.28;;
53519;SDS011;39397;53.204;5.778;2023-09-30T01:46:47;8.82;;;2.70;;
53519;SDS011;39397;53.204;5.778;2023-09-30T01:49:13;8.43;;;2.63;;
53519;SDS011;39397;53.204;5.778;2023-09-30T01:51:38;11.02;;;2.63;;
53519;SDS011;39397;53.204;5.778;2023-09-30T01:54:05;16.60;;;3.17;;
53519;SDS011;39397;53.204;5.778;2023-09-30T01:56:32;11.07;;;2.75;;
53519;SDS011;39397;53.204;5.778;2023-09-30T01:59:00;14.27;;;2.72;;
53519;SDS011;39397;53.204;5.778;2023-09-30T02:01:26;7.28;;;2.55;;
53519;SDS011;39397;53.204;5.778;2023-09-30T02:03:52;9.90;;;3.10;;
53519;SDS011;39397;53.204;5.778;2023-09-30T02:06:18;14.20;;;3.08;;
53519;SDS011;39397;53.204;5.778;2023-09-30T02:08:44;9.52;;;2.78;;
53519;SDS011;39397;53.204;5.778;2023-09-30T02:11:10;9.15;;;2.70;;
53519;SDS011;39397;53.204;5.778;2023-09-30T02:13:37;15.77;;;3.05;;
53519;SDS011;39397;53.204;5.778;2023-09-30T02:16:03;10.48;;;3.22;;
53519;SDS011;39397;53.204;5.778;2023-09-30T02:18:32;12.02;;;2.83;;
53519;SDS011;39397;53.204;5.778;2023-09-30T02:20:58;11.98;;;2.97;;
53519;SDS011;39397;53.204;5.778;2023-09-30T02:23:25;11.93;;;2.65;;
53519;SDS011;39397;53.204;5.778;2023-09-30T02:25:50;14.15;;;3.05;;
53519;SDS011;39397;53.204;5.778;2023-09-30T02:28:17;14.07;;;4.07;;
53519;SDS011;39397;53.204;5.778;2023-09-30T02:30:42;13.35;;;2.70;;
53519;SDS011;39397;53.204;5.778;2023-09-30T02:33:08;10.35;;;2.95;;
53519;SDS011;39397;53.204;5.778;2023-09-30T02:35:34;9.90;;;2.67;;
53519;SDS011;39397;53.204;5.778;2023-09-30T02:38:00;6.95;;;2.80;;
53519;SDS011;39397;53.204;5.778;2023-09-30T02:40:25;9.68;;;2.83;;
53519;SDS011;39397;53.204;5.778;2023-09-30T02:42:51;11.13;;;2.97;;
53519;SDS011;39397;53.204;5.778;2023-09-30T02:45:17;11.98;;;3.20;;
53519;SDS011;39397;53.204;5.778;2023-09-30T02:47:43;9.20;;;2.60;;
53519;SDS011;39397;53.204;5.778;2023-09-30T02:50:09;11.85;;;2.90;;
53519;SDS011;39397;53.204;5.778;2023-09-30T02:52:39;11.43;;;2.78;;
53519;SDS011;39397;53.204;5.778;2023-09-30T02:55:06;13.95;;;3.55;;
53519;SDS011;39397;53.204;5.778;2023-09-30T02:57:34;11.23;;;2.90;;
53519;SDS011;39397;53.204;5.778;2023-09-30T03:00:06;11.13;;;2.70;;
53519;SDS011;39397;53.204;5.778;2023-09-30T03:02:59;13.52;;;3.05;;
53519;SDS011;39397;53.204;5.778;2023-09-30T03:05:30;14.20;;;2.72;;
53519;SDS011;39397;53.204;5.778;2023-09-30T03:07:58;14.15;;;2.85;;
53519;SDS011;39397;53.204;5.778;2023-09-30T03:10:29;9.50;;;2.40;;
53519;SDS011;39397;53.204;5.778;2023-09-30T03:12:56;11.30;;;2.53;;
53519;SDS011;39397;53.204;5.778;2023-09-30T03:15:27;9.55;;;2.17;;
53519;SDS011;39397;53.204;5.778;2023-09-30T03:17:56;15.48;;;2.70;;
53519;SDS011;39397;53.204;5.778;2023-09-30T03:20:22;11.15;;;2.70;;
53519;SDS011;39397;53.204;5.778;2023-09-30T03:22:50;11.00;;;2.50;;
53519;SDS011;39397;53.204;5.778;2023-09-30T03:25:17;13.63;;;3.15;;
53519;SDS011;39397;53.204;5.778;2023-09-30T03:27:44;11.77;;;2.30;;
53519;SDS011;39397;53.204;5.778;2023-09-30T03:30:16;14.88;;;2.63;;
53519;SDS011;39397;53.204;5.778;2023-09-30T03:32:42;8.10;;;2.05;;
53519;SDS011;39397;53.204;5.778;2023-09-30T03:35:09;10.88;;;2.50;;
53519;SDS011;39397;53.204;5.778;2023-09-30T03:37:36;8.75;;;2.10;;
53519;SDS011;39397;53.204;5.778;2023-09-30T03:40:02;9.77;;;2.00;;
53519;SDS011;39397;53.204;5.778;2023-09-30T03:42:41;9.40;;;2.28;;
53519;SDS011;39397;53.204;5.778;2023-09-30T03:45:17;7.63;;;2.03;;
53519;SDS011;39397;53.204;5.778;2023-09-30T03:47:43;8.02;;;2.03;;
53519;SDS011;39397;53.204;5.778;2023-09-30T03:50:10;15.00;;;2.47;;
53519;SDS011;39397;53.204;5.778;2023-09-30T03:52:39;11.27;;;1.98;;
53519;SDS011;39397;53.204;5.778;2023-09-30T03:55:09;8.82;;;1.80;;
53519;SDS011;39397;53.204;5.778;2023-09-30T03:57:37;7.78;;;1.88;;
53519;SDS011;39397;53.204;5.778;2023-09-30T04:00:03;13.18;;;2.33;;
53519;SDS011;39397;53.204;5.778;2023-09-30T04:02:35;12.32;;;2.35;;
53519;SDS011;39397;53.204;5.778;2023-09-30T04:05:00;10.68;;;2.08;;
53519;SDS011;39397;53.204;5.778;2023-09-30T04:07:30;10.80;;;2.65;;
53519;SDS011;39397;53.204;5.778;2023-09-30T04:09:57;8.90;;;1.92;;
53519;SDS011;39397;53.204;5.778;2023-09-30T04:12:26;11.23;;;2.10;;
53519;SDS011;39397;53.204;5.778;2023-09-30T04:14:51;11.00;;;2.80;;
53519;SDS011;39397;53.204;5.778;2023-09-30T04:17:18;12.98;;;3.00;;
53519;SDS011;39397;53.204;5.778;2023-09-30T04:19:43;10.27;;;2.80;;
53519;SDS011;39397;53.204;5.778;2023-09-30T04:22:10;9.38;;;2.40;;
53519;SDS011;39397;53.204;5.778;2023-09-30T04:24:38;11.20;;;2.97;;
53519;SDS011;39397;53.204;5.778;2023-09-30T04:27:04;9.52;;;2.78;;
53519;SDS011;39397;53.204;5.778;2023-09-30T04:29:32;10.38;;;2.28;;
53519;SDS011;39397;53.204;5.778;2023-09-30T04:31:59;9.85;;;2.55;;
53519;SDS011;39397;53.204;5.778;2023-09-30T04:34:25;19.55;;;3.80;;
53519;SDS011;39397;53.204;5.778;2023-09-30T04:36:53;10.57;;;2.75;;
53519;SDS011;39397;53.204;5.778;2023-09-30T04:39:19;8.98;;;2.33;;
53519;SDS011;39397;53.204;5.778;2023-09-30T04:41:48;8.50;;;2.60;;
53519;SDS011;39397;53.204;5.778;2023-09-30T04:44:14;11.60;;;3.00;;
53519;SDS011;39397;53.204;5.778;2023-09-30T04:46:41;11.55;;;2.95;;
53519;SDS011;39397;53.204;5.778;2023-09-30T04:49:12;9.70;;;3.38;;
53519;SDS011;39397;53.204;5.778;2023-09-30T04:51:39;15.02;;;3.20;;
53519;SDS011;39397;53.204;5.778;2023-09-30T04:54:05;16.83;;;2.83;;
53519;SDS011;39397;53.204;5.778;2023-09-30T04:56:33;8.70;;;2.63;;
53519;SDS011;39397;53.204;5.778;2023-09-30T04:59:00;11.50;;;3.28;;
53519;SDS011;39397;53.204;5.778;2023-09-30T05:01:27;9.20;;;3.08;;
53519;SDS011;39397;53.204;5.778;2023-09-30T05:03:53;10.52;;;2.90;;
53519;SDS011;39397;53.204;5.778;2023-09-30T05:06:19;13.15;;;3.05;;
53519;SDS011;39397;53.204;5.778;2023-09-30T05:08:46;12.20;;;3.78;;
53519;SDS011;39397;53.204;5.778;2023-09-30T05:11:14;11.88;;;3.67;;
53519;SDS011;39397;53.204;5.778;2023-09-30T05:13:42;10.45;;;3.55;;
53519;SDS011;39397;53.204;5.778;2023-09-30T05:16:07;10.02;;;2.90;;
53519;SDS011;39397;53.204;5.778;2023-09-30T05:18:33;10.05;;;3.38;;
53519;SDS011;39397;53.204;5.778;2023-09-30T05:20:59;11.10;;;3.45;;
53519;SDS011;39397;53.204;5.778;2023-09-30T05:23:25;12.13;;;3.33;;
53519;SDS011;39397;53.204;5.778;2023-09-30T05:25:51;10.73;;;3.38;;
53519;SDS011;39397;53.204;5.778;2023-09-30T05:28:19;13.15;;;3.28;;
53519;SDS011;39397;53.204;5.778;2023-09-30T05:30:46;10.38;;;3.35;;
53519;SDS011;39397;53.204;5.778;2023-09-30T05:33:12;14.27;;;4.07;;
53519;SDS011;39397;53.204;5.778;2023-09-30T05:35:42;14.27;;;3.13;;
53519;SDS011;39397;53.204;5.778;2023-09-30T05:38:08;11.07;;;3.10;;
53519;SDS011;39397;53.204;5.778;2023-09-30T05:40:34;10.65;;;3.20;;
53519;SDS011;39397;53.204;5.778;2023-09-30T05:42:59;10.07;;;3.75;;
53519;SDS011;39397;53.204;5.778;2023-09-30T05:45:26;11.07;;;3.22;;
53519;SDS011;39397;53.204;5.778;2023-09-30T05:47:56;11.30;;;3.08;;
53519;SDS011;39397;53.204;5.778;2023-09-30T05:50:24;12.50;;;3.00;;
53519;SDS011;39397;53.204;5.778;2023-09-30T05:52:51;12.50;;;3.70;;
53519;SDS011;39397;53.204;5.778;2023-09-30T05:55:18;12.32;;;3.20;;
53519;SDS011;39397;53.204;5.778;2023-09-30T05:57:50;13.15;;;3.15;;
53519;SDS011;39397;53.204;5.778;2023-09-30T06:00:17;9.93;;;3.28;;
53519;SDS011;39397;53.204;5.778;2023-09-30T06:03:03;18.45;;;6.03;;
53519;SDS011;39397;53.204;5.778;2023-09-30T06:05:31;11.15;;;3.38;;
53519;SDS011;39397;53.204;5.778;2023-09-30T06:07:58;12.98;;;4.28;;
53519;SDS011;39397;53.204;5.778;2023-09-30T06:10:45;14.65;;;4.70;;
53519;SDS011;39397;53.204;5.778;2023-09-30T06:13:11;11.32;;;3.72;;
53519;SDS011;39397;53.204;5.778;2023-09-30T06:15:41;10.00;;;3.08;;
53519;SDS011;39397;53.204;5.778;2023-09-30T06:18:08;12.82;;;3.72;;
53519;SDS011;39397;53.204;5.778;2023-09-30T06:20:35;10.98;;;3.58;;
53519;SDS011;39397;53.204;5.778;2023-09-30T06:23:01;9.27;;;3.10;;
53519;SDS011;39397;53.204;5.778;2023-09-30T06:25:28;13.68;;;3.78;;
53519;SDS011;39397;53.204;5.778;2023-09-30T06:27:55;12.85;;;4.40;;
53519;SDS011;39397;53.204;5.778;2023-09-30T06:30:23;12.80;;;4.30;;
53519;SDS011;39397;53.204;5.778;2023-09-30T06:33:01;16.95;;;4.60;;
53519;SDS011;39397;53.204;5.778;2023-09-30T06:35:30;9.85;;;2.85;;
53519;SDS011;39397;53.204;5.778;2023-09-30T06:37:58;10.05;;;3.28;;
53519;SDS011;39397;53.204;5.778;2023-09-30T06:40:24;12.43;;;3.05;;
53519;SDS011;39397;53.204;5.778;2023-09-30T06:42:50;10.15;;;2.53;;
53519;SDS011;39397;53.204;5.778;2023-09-30T06:45:17;7.30;;;2.65;;
53519;SDS011;39397;53.204;5.778;2023-09-30T06:47:43;7.50;;;2.95;;
53519;SDS011;39397;53.204;5.778;2023-09-30T06:50:11;13.95;;;3.03;;
53519;SDS011;39397;53.204;5.778;2023-09-30T06:52:41;14.45;;;3.15;;
53519;SDS011;39397;53.204;5.778;2023-09-30T06:55:10;14.40;;;3.33;;
53519;SDS011;39397;53.204;5.778;2023-09-30T06:57:39;9.88;;;2.95;;
53519;SDS011;39397;53.204;5.778;2023-09-30T07:00:12;8.48;;;2.58;;
53519;SDS011;39397;53.204;5.778;2023-09-30T07:02:39;12.00;;;2.87;;
53519;SDS011;39397;53.204;5.778;2023-09-30T07:05:09;13.27;;;3.55;;
53519;SDS011;39397;53.204;5.778;2023-09-30T07:07:36;9.60;;;2.90;;
53519;SDS011;39397;53.204;5.778;2023-09-30T07:10:02;12.90;;;2.97;;
53519;SDS011;39397;53.204;5.778;2023-09-30T07:12:31;12.73;;;2.70;;
53519;SDS011;39397;53.204;5.778;2023-09-30T07:15:01;10.35;;;2.65;;
53519;SDS011;39397;53.204;5.778;2023-09-30T07:17:28;12.70;;;3.33;;
53519;SDS011;39397;53.204;5.778;2023-09-30T07:19:53;10.90;;;2.10;;
53519;SDS011;39397;53.204;5.778;2023-09-30T07:22:19;7.28;;;2.33;;
53519;SDS011;39397;53.204;5.778;2023-09-30T07:24:45;10.52;;;2.33;;
53519;SDS011;39397;53.204;5.778;2023-09-30T07:27:11;10.68;;;2.65;;
53519;SDS011;39397;53.204;5.778;2023-09-30T07:29:37;8.95;;;2.88;;
53519;SDS011;39397;53.204;5.778;2023-09-30T07:32:03;13.65;;;2.80;;
53519;SDS011;39397;53.204;5.778;2023-09-30T07:34:30;9.27;;;2.53;;
53519;SDS011;39397;53.204;5.778;2023-09-30T07:36:56;13.32;;;2.60;;
53519;SDS011;39397;53.204;5.778;2023-09-30T07:39:22;11.77;;;2.17;;
53519;SDS011;39397;53.204;5.778;2023-09-30T07:41:48;10.00;;;2.10;;
53519;SDS011;39397;53.204;5.778;2023-09-30T07:44:13;12.10;;;2.75;;
53519;SDS011;39397;53.204;5.778;2023-09-30T07:46:39;15.23;;;2.47;;
53519;SDS011;39397;53.204;5.778;2023-09-30T07:49:05;9.40;;;2.78;;
53519;SDS011;39397;53.204;5.778;2023-09-30T07:51:32;10.98;;;3.10;;
53519;SDS011;39397;53.204;5.778;2023-09-30T07:53:58;10.73;;;2.90;;
53519;SDS011;39397;53.204;5.778;2023-09-30T07:56:23;10.20;;;2.33;;
53519;SDS011;39397;53.204;5.778;2023-09-30T07:58:55;9.25;;;2.53;;
53519;SDS011;39397;53.204;5.778;2023-09-30T08:01:21;9.52;;;2.00;;
53519;SDS011;39397;53.204;5.778;2023-09-30T08:03:47;9.05;;;2.35;;
53519;SDS011;39397;53.204;5.778;2023-09-30T08:06:13;14.07;;;2.53;;
53519;SDS011;39397;53.204;5.778;2023-09-30T08:08:39;11.25;;;2.30;;
53519;SDS011;39397;53.204;5.778;2023-09-30T08:11:06;10.25;;;3.45;;
53519;SDS011;39397;53.204;5.778;2023-09-30T08:13:37;8.98;;;2.65;;
53519;SDS011;39397;53.204;5.778;2023-09-30T08:16:04;11.60;;;2.47;;
53519;SDS011;39397;53.204;5.778;2023-09-30T08:18:31;12.73;;;2.90;;
53519;SDS011;39397;53.204;5.778;2023-09-30T08:20:57;9.88;;;2.00;;
53519;SDS011;39397;53.204;5.778;2023-09-30T08:23:23;8.80;;;2.00;;
53519;SDS011;39397;53.204;5.778;2023-09-30T08:25:49;12.07;;;2.25;;
53519;SDS011;39397;53.204;5.778;2023-09-30T08:28:15;9.20;;;1.92;;
53519;SDS011;39397;53.204;5.778;2023-09-30T08:30:41;11.50;;;2.40;;
53519;SDS011;39397;53.204;5.778;2023-09-30T08:33:07;14.27;;;2.90;;
53519;SDS011;39397;53.204;5.778;2023-09-30T08:35:36;11.00;;;2.22;;
53519;SDS011;39397;53.204;5.778;2023-09-30T08:38:05;13.38;;;2.00;;
53519;SDS011;39397;53.204;5.778;2023-09-30T08:40:31;11.38;;;2.00;;
53519;SDS011;39397;53.204;5.778;2023-09-30T08:42:57;11.32;;;1.90;;
53519;SDS011;39397;53.204;5.778;2023-09-30T08:45:27;10.38;;;1.90;;
53519;SDS011;39397;53.204;5.778;2023-09-30T08:47:58;8.65;;;1.80;;
53519;SDS011;39397;53.204;5.778;2023-09-30T08:50:31;11.00;;;1.85;;
53519;SDS011;39397;53.204;5.778;2023-09-30T08:53:01;10.65;;;1.90;;
53519;SDS011;39397;53.204;5.778;2023-09-30T08:55:29;11.05;;;1.83;;
53519;SDS011;39397;53.204;5.778;2023-09-30T08:57:56;10.93;;;1.98;;
53519;SDS011;39397;53.204;5.778;2023-09-30T09:00:24;13.13;;;1.90;;
53519;SDS011;39397;53.204;5.778;2023-09-30T09:02:50;10.20;;;2.38;;
53519;SDS011;39397;53.204;5.778;2023-09-30T09:05:17;9.13;;;2.13;;
53519;SDS011;39397;53.204;5.778;2023-09-30T09:07:43;13.95;;;3.72;;
53519;SDS011;39397;53.204;5.778;2023-09-30T09:10:10;8.48;;;1.90;;
53519;SDS011;39397;53.204;5.778;2023-09-30T09:12:39;9.13;;;1.77;;
53519;SDS011;39397;53.204;5.778;2023-09-30T09:15:05;11.30;;;2.10;;
53519;SDS011;39397;53.204;5.778;2023-09-30T09:17:39;8.85;;;1.67;;
53519;SDS011;39397;53.204;5.778;2023-09-30T09:20:10;8.63;;;1.85;;
53519;SDS011;39397;53.204;5.778;2023-09-30T09:22:45;11.20;;;2.03;;
53519;SDS011;39397;53.204;5.778;2023-09-30T09:25:12;7.53;;;1.75;;
53519;SDS011;39397;53.204;5.778;2023-09-30T09:27:45;12.23;;;1.58;;
53519;SDS011;39397;53.204;5.778;2023-09-30T09:33:05;13.75;;;1.80;;
53519;SDS011;39397;53.204;5.778;2023-09-30T09:35:33;7.38;;;1.40;;
53519;SDS011;39397;53.204;5.778;2023-09-30T09:38:06;6.93;;;1.30;;
53519;SDS011;39397;53.204;5.778;2023-09-30T09:40:36;9.85;;;2.13;;
53519;SDS011;39397;53.204;5.778;2023-09-30T09:43:05;8.07;;;1.50;;
53519;SDS011;39397;53.204;5.778;2023-09-30T09:45:35;8.88;;;1.83;;
53519;SDS011;39397;53.204;5.778;2023-09-30T09:48:07;7.10;;;1.75;;
53519;SDS011;39397;53.204;5.778;2023-09-30T09:50:36;8.57;;;1.75;;
53519;SDS011;39397;53.204;5.778;2023-09-30T09:53:03;10.35;;;1.83;;
53519;SDS011;39397;53.204;5.778;2023-09-30T09:55:31;11.18;;;2.58;;
53519;SDS011;39397;53.204;5.778;2023-09-30T09:57:57;9.88;;;1.88;;
53519;SDS011;39397;53.204;5.778;2023-09-30T10:00:24;9.30;;;1.75;;
53519;SDS011;39397;53.204;5.778;2023-09-30T10:02:51;6.95;;;1.73;;
53519;SDS011;39397;53.204;5.778;2023-09-30T10:05:20;9.98;;;1.30;;
53519;SDS011;39397;53.204;5.778;2023-09-30T10:10:37;6.40;;;1.20;;
53519;SDS011;39397;53.204;5.778;2023-09-30T10:13:04;8.27;;;1.60;;
53519;SDS011;39397;53.204;5.778;2023-09-30T10:15:34;9.32;;;1.55;;
53519;SDS011;39397;53.204;5.778;2023-09-30T10:18:09;4.90;;;1.25;;
53519;SDS011;39397;53.204;5.778;2023-09-30T10:20:37;8.65;;;1.50;;
53519;SDS011;39397;53.204;5.778;2023-09-30T10:25:45;7.43;;;1.27;;
53519;SDS011;39397;53.204;5.778;2023-09-30T10:31:14;7.60;;;1.42;;
53519;SDS011;39397;53.204;5.778;2023-09-30T10:36:31;7.20;;;1.75;;
53519;SDS011;39397;53.204;5.778;2023-09-30T10:38:58;7.47;;;1.55;;
53519;SDS011;39397;53.204;5.778;2023-09-30T10:46:59;10.07;;;1.45;;
53519;SDS011;39397;53.204;5.778;2023-09-30T10:49:49;6.63;;;1.20;;
53519;SDS011;39397;53.204;5.778;2023-09-30T10:52:21;10.07;;;1.70;;
53519;SDS011;39397;53.204;5.778;2023-09-30T10:54:48;8.15;;;1.67;;
53519;SDS011;39397;53.204;5.778;2023-09-30T10:57:16;10.77;;;1.30;;
53519;SDS011;39397;53.204;5.778;2023-09-30T11:00:07;6.32;;;1.60;;
53519;SDS011;39397;53.204;5.778;2023-09-30T11:02:49;5.63;;;1.42;;
53519;SDS011;39397;53.204;5.778;2023-09-30T11:05:16;8.63;;;1.75;;
53519;SDS011;39397;53.204;5.778;2023-09-30T11:07:43;7.30;;;2.45;;
53519;SDS011;39397;53.204;5.778;2023-09-30T11:10:15;7.50;;;1.17;;
53519;SDS011;39397;53.204;5.778;2023-09-30T11:12:53;9.95;;;2.22;;
53519;SDS011;39397;53.204;5.778;2023-09-30T11:15:23;7.45;;;1.63;;
53519;SDS011;39397;53.204;5.778;2023-09-30T11:17:49;6.93;;;1.40;;
53519;SDS011;39397;53.204;5.778;2023-09-30T11:20:18;5.40;;;1.20;;
53519;SDS011;39397;53.204;5.778;2023-09-30T11:22:47;7.50;;;1.30;;
53519;SDS011;39397;53.204;5.778;2023-09-30T11:25:17;6.90;;;1.38;;
53519;SDS011;39397;53.204;5.778;2023-09-30T11:27:44;5.53;;;1.38;;
53519;SDS011;39397;53.204;5.778;2023-09-30T11:30:12;6.82;;;1.52;;
53519;SDS011;39397;53.204;5.778;2023-09-30T11:32:38;7.03;;;1.40;;
53519;SDS011;39397;53.204;5.778;2023-09-30T11:35:08;7.95;;;1.98;;
53519;SDS011;39397;53.204;5.778;2023-09-30T11:37:48;7.25;;;1.42;;
53519;SDS011;39397;53.204;5.778;2023-09-30T11:40:19;8.13;;;1.58;;
53519;SDS011;39397;53.204;5.778;2023-09-30T11:43:07;6.78;;;1.67;;
53519;SDS011;39397;53.204;5.778;2023-09-30T11:45:37;9.00;;;1.67;;
53519;SDS011;39397;53.204;5.778;2023-09-30T11:48:15;5.78;;;1.38;;
53519;SDS011;39397;53.204;5.778;2023-09-30T11:50:47;5.47;;;1.45;;
53519;SDS011;39397;53.204;5.778;2023-09-30T11:53:17;6.47;;;1.23;;
53519;SDS011;39397;53.204;5.778;2023-09-30T11:55:46;8.10;;;1.67;;
53519;SDS011;39397;53.204;5.778;2023-09-30T11:58:15;4.63;;;1.00;;
53519;SDS011;39397;53.204;5.778;2023-09-30T12:00:43;6.65;;;1.38;;
53519;SDS011;39397;53.204;5.778;2023-09-30T12:03:09;6.88;;;1.90;;
53519;SDS011;39397;53.204;5.778;2023-09-30T12:05:35;7.82;;;1.50;;
53519;SDS011;39397;53.204;5.778;2023-09-30T12:08:02;6.57;;;1.50;;
53519;SDS011;39397;53.204;5.778;2023-09-30T12:10:28;6.97;;;1.33;;
53519;SDS011;39397;53.204;5.778;2023-09-30T12:12:55;6.75;;;1.55;;
53519;SDS011;39397;53.204;5.778;2023-09-30T12:15:21;5.97;;;1.67;;
53519;SDS011;39397;53.204;5.778;2023-09-30T12:17:47;8.70;;;1.70;;
53519;SDS011;39397;53.204;5.778;2023-09-30T12:20:13;8.25;;;1.60;;
53519;SDS011;39397;53.204;5.778;2023-09-30T12:22:40;5.60;;;1.42;;
53519;SDS011;39397;53.204;5.778;2023-09-30T12:25:06;8.20;;;2.15;;
53519;SDS011;39397;53.204;5.778;2023-09-30T12:27:33;5.65;;;1.65;;
53519;SDS011;39397;53.204;5.778;2023-09-30T12:29:59;8.68;;;1.48;;
53519;SDS011;39397;53.204;5.778;2023-09-30T12:32:25;7.55;;;1.95;;
53519;SDS011;39397;53.204;5.778;2023-09-30T12:34:52;6.30;;;1.45;;
53519;SDS011;39397;53.204;5.778;2023-09-30T12:37:18;6.97;;;1.50;;
53519;SDS011;39397;53.204;5.778;2023-09-30T12:39:44;6.45;;;1.30;;
53519;SDS011;39397;53.204;5.778;2023-09-30T12:42:10;6.50;;;1.30;;
53519;SDS011;39397;53.204;5.778;2023-09-30T12:44:37;7.43;;;1.67;;
53519;SDS011;39397;53.204;5.778;2023-09-30T12:47:04;8.00;;;1.70;;
53519;SDS011;39397;53.204;5.778;2023-09-30T12:49:30;7.22;;;1.67;;
53519;SDS011;39397;53.204;5.778;2023-09-30T12:51:56;8.65;;;1.65;;
53519;SDS011;39397;53.204;5.778;2023-09-30T12:54:24;7.63;;;1.60;;
53519;SDS011;39397;53.204;5.778;2023-09-30T12:56:50;8.85;;;1.65;;
53519;SDS011;39397;53.204;5.778;2023-09-30T12:59:16;5.60;;;1.25;;
53519;SDS011;39397;53.204;5.778;2023-09-30T13:01:49;8.80;;;1.40;;
53519;SDS011;39397;53.204;5.778;2023-09-30T13:04:15;6.13;;;1.52;;
53519;SDS011;39397;53.204;5.778;2023-09-30T13:06:41;6.65;;;1.70;;
53519;SDS011;39397;53.204;5.778;2023-09-30T13:09:06;6.03;;;1.17;;
53519;SDS011;39397;53.204;5.778;2023-09-30T13:11:34;7.57;;;1.55;;
53519;SDS011;39397;53.204;5.778;2023-09-30T13:13:59;5.45;;;1.52;;
53519;SDS011;39397;53.204;5.778;2023-09-30T13:16:25;6.45;;;1.55;;
53519;SDS011;39397;53.204;5.778;2023-09-30T13:18:51;7.25;;;1.67;;
53519;SDS011;39397;53.204;5.778;2023-09-30T13:21:17;8.95;;;1.73;;
53519;SDS011;39397;53.204;5.778;2023-09-30T13:23:43;6.43;;;1.45;;
53519;SDS011;39397;53.204;5.778;2023-09-30T13:26:10;6.15;;;1.25;;
53519;SDS011;39397;53.204;5.778;2023-09-30T13:28:36;8.63;;;1.40;;
53519;SDS011;39397;53.204;5.778;2023-09-30T13:31:02;9.85;;;1.85;;
53519;SDS011;39397;53.204;5.778;2023-09-30T13:33:28;5.60;;;1.40;;
53519;SDS011;39397;53.204;5.778;2023-09-30T13:35:53;6.45;;;1.52;;
53519;SDS011;39397;53.204;5.778;2023-09-30T13:38:20;6.47;;;1.63;;
53519;SDS011;39397;53.204;5.778;2023-09-30T13:40:46;6.50;;;1.48;;
53519;SDS011;39397;53.204;5.778;2023-09-30T13:43:12;6.25;;;1.65;;
53519;SDS011;39397;53.204;5.778;2023-09-30T13:45:38;8.55;;;2.05;;
53519;SDS011;39397;53.204;5.778;2023-09-30T13:48:03;7.18;;;1.70;;
53519;SDS011;39397;53.204;5.778;2023-09-30T13:50:29;5.78;;;1.20;;
53519;SDS011;39397;53.204;5.778;2023-09-30T13:52:55;6.68;;;1.55;;
53519;SDS011;39397;53.204;5.778;2023-09-30T13:55:21;7.90;;;1.80;;
53519;SDS011;39397;53.204;5.778;2023-09-30T13:57:47;7.15;;;1.38;;
53519;SDS011;39397;53.204;5.778;2023-09-30T14:00:16;7.32;;;1.40;;
53519;SDS011;39397;53.204;5.778;2023-09-30T14:02:42;7.20;;;1.67;;
53519;SDS011;39397;53.204;5.778;2023-09-30T14:05:08;5.53;;;1.50;;
53519;SDS011;39397;53.204;5.778;2023-09-30T14:07:35;6.95;;;1.58;;
53519;SDS011;39397;53.204;5.778;2023-09-30T14:10:02;4.60;;;1.27;;
53519;SDS011;39397;53.204;5.778;2023-09-30T14:12:29;7.32;;;1.52;;
53519;SDS011;39397;53.204;5.778;2023-09-30T14:14:54;7.13;;;1.73;;
53519;SDS011;39397;53.204;5.778;2023-09-30T14:17:20;7.63;;;1.55;;
53519;SDS011;39397;53.204;5.778;2023-09-30T14:19:46;6.78;;;1.73;;
53519;SDS011;39397;53.204;5.778;2023-09-30T14:22:12;5.53;;;1.83;;
53519;SDS011;39397;53.204;5.778;2023-09-30T14:24:37;4.35;;;1.33;;
53519;SDS011;39397;53.204;5.778;2023-09-30T14:27:03;6.50;;;1.95;;
53519;SDS011;39397;53.204;5.778;2023-09-30T14:29:30;5.78;;;1.33;;
53519;SDS011;39397;53.204;5.778;2023-09-30T14:31:57;5.47;;;1.60;;
53519;SDS011;39397;53.204;5.778;2023-09-30T14:34:23;6.53;;;1.42;;
53519;SDS011;39397;53.204;5.778;2023-09-30T14:36:52;5.82;;;1.38;;
53519;SDS011;39397;53.204;5.778;2023-09-30T14:39:18;6.50;;;1.98;;
53519;SDS011;39397;53.204;5.778;2023-09-30T14:41:44;10.20;;;1.45;;
53519;SDS011;39397;53.204;5.778;2023-09-30T14:44:10;7.82;;;2.40;;
53519;SDS011;39397;53.204;5.778;2023-09-30T14:46:39;6.28;;;1.73;;
53519;SDS011;39397;53.204;5.778;2023-09-30T14:49:05;6.88;;;1.45;;
53519;SDS011;39397;53.204;5.778;2023-09-30T14:51:31;6.45;;;1.30;;
53519;SDS011;39397;53.204;5.778;2023-09-30T14:53:58;6.70;;;1.88;;
53519;SDS011;39397;53.204;5.778;2023-09-30T14:56:24;5.88;;;1.25;;
53519;SDS011;39397;53.204;5.778;2023-09-30T14:58:49;7.72;;;2.13;;
53519;SDS011;39397;53.204;5.778;2023-09-30T15:01:18;5.03;;;1.17;;
53519;SDS011;39397;53.204;5.778;2023-09-30T15:03:45;7.82;;;1.70;;